Terminal Aerodrome Forecast
Issued by NWS Blacksburg, VA

Current Version | Previous Version | Graphics & Text | Print | Product List | Glossary Off
Versions: 1 2 3 4 5 6 7 8 9 10 11 12 13 14 15 16 17 18

000
FTUS41 KRNK 280520
TAFBLF
TAF
KBLF 280520Z 2806/0106 18006KT P6SM SCT050
     FM280800 17004KT P6SM SCT250
     FM281300 17006KT P6SM BKN100
     FM281800 20008KT 6SM -SHRA OVC060
     FM010100 20009KT P6SM OVC050=

USA.gov is the U.S. government's official web portal to all federal, state and local government web resources and services.